Latest Weather Observations for Montague Island

IDN60801

Issued at 6:33 am EST Saturday 2 July 2016 (issued every 30 minutes, with the page automatically refreshed every 10 minutes)

About weather observations | Map of weather stations | Latest weather observations for NSW | Other Formats
Station Details ID: 069017 Name: MONTAGUE ISLAND LIGHTHOUSE Lat: -36.25 Lon: 150.23 Height: 52.0 m
Data from the previous 72 hours. | See also: Recent months at Montague Island
Date/Time
EST
Temp
°C
App
Temp
°C
Dew
Point
°C
Rel
Hum
%
Delta-T
°C
Wind Press
QNH
hPa
Press
MSL
hPa
Rain since
9am
mm
Dir  Spd
km/h
Gust
km/h
Spd
kts
Gust
kts
02/06:30am 11.6 7.2 4.6 62 3.2 W 17 20 9 11 1022.4 1022.4 0.0
02/06:00am 11.2 7.2 4.9 65 2.9 WNW 15 19 8 10 1022.0 1022.0 0.0
02/05:30am 11.5 7.4 4.3 61 3.2 WNW 15 20 8 11 1021.6 1021.6 0.0
02/05:00am 11.5 7.3 4.0 60 3.3 WNW 15 20 8 11 1021.4 1021.4 0.0
02/04:30am 11.7 7.7 4.9 63 3.1 WNW 15 19 8 10 1021.1 1021.1 0.0
02/04:00am 11.4 7.3 4.6 63 3.1 W 15 22 8 12 1020.9 1020.9 0.0
02/03:30am 11.6 7.2 4.8 63 3.1 W 17 22 9 12 1021.2 1021.2 0.0
02/03:00am 11.9 7.0 4.9 62 3.2 W 20 30 11 16 1021.2 1021.2 0.0
02/02:30am 11.9 7.7 5.5 65 3.0 WNW 17 22 9 12 1021.2 1021.2 0.0
02/02:00am 12.0 7.8 5.9 66 2.8 W 17 24 9 13 1021.3 1021.3 0.0
02/01:30am 11.6 7.9 6.3 70 2.5 W 15 20 8 11 1021.4 1021.4 0.0
02/01:00am 11.8 8.1 6.5 70 2.5 W 15 19 8 10 1021.2 1021.2 0.0
02/12:30am 11.8 8.4 5.7 66 2.8 W 13 19 7 10 1021.2 1021.2 0.0
02/12:00am 12.1 8.6 5.3 63 3.1 WSW 13 19 7 10 1021.2 1021.2 0.0
 
Date/Time
EST
Temp
°C
App
Temp
°C
Dew
Point
°C
Rel
Hum
%
Delta-T
°C
Wind Press
QNH
hPa
Press
MSL
hPa
Rain since
9am
mm
Dir  Spd
km/h
Gust
km/h
Spd
kts
Gust
kts
01/11:30pm 12.5 7.2 5.2 61 3.4 SW 22 28 12 15 1021.0 1021.0 0.0
01/11:00pm 12.7 7.8 5.1 60 3.5 SW 20 28 11 15 1021.0 1021.0 0.0
01/10:30pm 12.8 7.5 5.0 59 3.6 SW 22 30 12 16 1020.8 1020.8 0.0
01/10:00pm 12.8 8.2 5.5 61 3.4 SW 19 24 10 13 1020.6 1020.6 0.0
01/09:30pm 12.9 8.5 4.8 58 3.7 WSW 17 22 9 12 1020.6 1020.6 0.0
01/09:00pm 13.0 8.5 4.2 55 4.0 WSW 17 20 9 11 1020.5 1020.5 0.0
01/08:30pm 13.2 9.1 4.6 56 4.0 WSW 15 19 8 10 1020.3 1020.3 0.0
01/08:00pm 13.3 8.4 4.2 54 4.1 WSW 19 22 10 12 1019.9 1019.9 0.0
01/07:30pm 13.3 8.4 4.2 54 4.2 WSW 19 22 10 12 1019.6 1019.6 0.0
01/07:00pm 13.3 8.8 4.2 54 4.1 W 17 20 9 11 1019.2 1019.2 0.0
01/06:30pm 13.6 8.2 4.5 54 4.2 SW 22 30 12 16 1018.6 1018.6 0.0
01/06:00pm 14.1 7.9 4.4 52 4.5 SW 26 33 14 18 1018.2 1018.2 0.0
01/05:30pm 14.0 6.0 4.0 51 4.6 SW 35 44 19 24 1017.8 1017.8 0.0
01/05:00pm 14.4 7.6 5.2 54 4.3 SW 30 44 16 24 1017.3 1017.3 0.0
01/04:30pm 14.6 6.8 4.9 52 4.5 SW 35 48 19 26 1016.6 1016.6 0.0
01/04:00pm 14.9 7.9 6.2 56 4.2 SW 32 46 17 25 1016.3 1016.3 0.0
01/03:30pm 15.2 8.1 5.4 52 4.7 SW 32 43 17 23 1015.8 1015.8 0.0
01/03:00pm 15.5 7.1 5.7 52 4.7 SW 39 50 21 27 1015.3 1015.3 0.0
01/02:46pm 15.5 7.5 5.7 52 4.7 SW 37 57 20 31 1015.2 1015.2 0.0
01/02:30pm 15.9 8.5 5.2 49 5.1 SW 33 50 18 27 1015.0 1015.0 0.0
01/02:00pm 15.7 8.8 4.4 47 5.3 SW 30 46 16 25 1014.7 1014.7 0.0
01/01:30pm 15.0 9.1 4.1 48 5.0 SSW 24 41 13 22 1014.5 1014.5 0.0
01/01:00pm 14.6 9.1 4.0 49 4.9 SSW 22 33 12 18 1014.4 1014.4 0.0
01/12:30pm 14.1 8.1 3.3 48 4.9 SSW 24 35 13 19 1014.3 1014.3 0.0
01/12:00pm 13.9 8.7 3.4 49 4.7 SSW 20 30 11 16 1014.4 1014.4 0.0
01/11:30am 13.9 8.4 1.9 44 5.2 SW 20 32 11 17 1014.7 1014.7 0.0
01/11:00am 13.8 9.0 2.4 46 5.0 WSW 17 24 9 13 1014.8 1014.8 0.0
01/10:30am 12.2 7.4 2.4 51 4.3 W 17 22 9 12 1015.0 1015.0 0.0
01/10:00am 11.9 6.0 1.8 50 4.3 WSW 22 30 12 16 1014.7 1014.7 0.0
01/09:30am 11.7 6.5 2.2 52 4.1 SW 19 26 10 14 1014.3 1014.2 0.0
01/09:00am 11.7 5.7 3.5 57 3.6 SW 24 39 13 21 1014.2 1014.1 0.0
01/08:30am 11.5 6.2 2.8 55 3.8 SW 20 28 11 15 1013.6 1013.5 0.0
01/08:00am 11.4 5.6 2.4 54 3.9 SW 22 30 12 16 1013.1 1013.0 0.0
01/07:30am 10.8 5.6 2.4 56 3.6 SW 19 24 10 13 1012.6 1012.6 0.0
01/07:00am 10.8 5.9 1.9 54 3.8 WSW 17 22 9 12 1012.1 1012.1 0.0
01/06:30am 10.9 6.1 2.7 57 3.5 W 17 22 9 12 1011.6 1011.6 0.0
01/06:00am 11.4 6.6 2.7 55 3.8 W 17 24 9 13 1011.0 1011.0 0.0
01/05:30am 11.5 6.6 2.3 53 4.0 W 17 20 9 11 1010.3 1010.3 0.0
01/05:00am 11.6 6.7 1.8 51 4.2 W 17 24 9 13 1009.8 1009.8 0.0
01/04:30am 11.4 4.8 2.2 53 4.0 W 26 39 14 21 1009.0 1009.0 0.0
01/04:00am 11.4 3.7 2.4 54 3.9 W 32 41 17 22 1008.8 1008.8 0.0
01/03:30am 11.9 3.4 3.2 55 3.8 W 37 48 20 26 1008.6 1008.6 0.0
01/03:00am 11.8 5.1 3.6 57 3.7 W 28 43 15 23 1008.6 1008.6 0.0
01/02:30am 11.7 4.6 3.7 58 3.6 W 30 39 16 21 1008.3 1008.3 0.0
01/02:00am 12.6 7.9 5.3 61 3.4 NW 19 33 10 18 1008.2 1008.2 0.0
01/01:30am 12.8 8.7 6.2 64 3.1 NW 17 24 9 13 1008.0 1008.0 0.0
01/01:00am 13.7 7.8 7.5 66 3.1 NW 28 46 15 25 1008.5 1008.5 0.0
01/12:56am 13.8 7.8 7.1 64 3.3 NNW 28 46 15 25 1008.6 1008.6 0.0
01/12:30am 13.5 6.6 7.1 65 3.1 NNW 33 44 18 24 1008.6 1008.6 0.0
01/12:00am 13.1 6.1 6.2 63 3.3 NNW 32 44 17 24 1008.8 1008.8 0.0
 
Date/Time
EST
Temp
°C
App
Temp
°C
Dew
Point
°C
Rel
Hum
%
Delta-T
°C
Wind Press
QNH
hPa
Press
MSL
hPa
Rain since
9am
mm
Dir  Spd
km/h
Gust
km/h
Spd
kts
Gust
kts
30/11:30pm 13.2 5.4 6.5 64 3.2 NNW 37 50 20 27 1008.8 1008.8 0.0
30/11:00pm 12.9 4.3 6.3 64 3.2 NNW 41 54 22 29 1009.0 1009.0 0.0
30/10:30pm 13.0 4.7 6.1 63 3.3 NNW 39 50 21 27 1009.4 1009.4 0.0
30/10:00pm 13.0 4.2 5.7 61 3.4 NNW 41 56 22 30 1009.5 1009.5 0.0
30/09:30pm 12.9 3.9 4.6 57 3.8 NNW 41 54 22 29 1009.5 1009.5 0.0
30/09:00pm 12.8 4.6 5.0 59 3.6 NNW 37 50 20 27 1009.7 1009.7 0.0
30/08:42pm 12.9 5.4 4.3 56 3.9 NNW 33 54 18 29 1009.9 1009.9 0.0
30/08:30pm 12.8 5.2 4.0 55 4.0 NW 33 50 18 27 1010.0 1010.0 0.0
30/08:00pm 12.6 4.9 3.6 54 4.0 NNW 33 46 18 25 1010.0 1010.0 0.0
30/07:30pm 12.7 3.8 2.8 51 4.4 NNW 39 50 21 27 1010.1 1010.1 0.0
30/07:00pm 12.8 3.7 4.0 55 4.0 NNW 41 56 22 30 1010.3 1010.3 0.0
30/06:30pm 12.8 3.4 2.4 49 4.5 NNW 41 54 22 29 1010.6 1010.6 0.0
30/06:00pm 12.9 4.0 3.0 51 4.4 NNW 39 52 21 28 1010.5 1010.5 0.0
30/05:30pm 13.1 4.2 2.9 50 4.5 NNW 39 54 21 29 1010.3 1010.3 0.0
30/05:00pm 13.2 4.5 2.1 47 4.8 NNW 37 50 20 27 1010.2 1010.2 0.0
30/04:41pm 13.4 4.7 2.0 46 5.0 NW 37 56 20 30 1010.1 1010.1 0.0
30/04:30pm 13.6 5.0 2.5 47 4.9 NW 37 52 20 28 1010.3 1010.3 0.0
30/04:00pm 13.7 5.1 2.6 47 4.9 NNW 37 59 20 32 1010.4 1010.4 0.0
30/03:58pm 13.7 5.2 2.9 48 4.8 NNW 37 59 20 32 1010.3 1010.3 0.0
30/03:30pm 13.6 5.1 3.4 50 4.6 NNW 37 50 20 27 1010.6 1010.6 0.0
30/03:00pm 13.5 4.6 3.3 50 4.6 NNW 39 50 21 27 1010.8 1010.8 0.0
30/02:30pm 13.4 5.1 4.3 54 4.2 N 37 52 20 28 1010.9 1010.9 0.0
30/02:00pm 13.6 5.8 2.8 48 4.8 NNW 33 44 18 24 1011.1 1011.1 0.0
30/01:30pm 14.0 5.7 4.3 52 4.5 N 37 50 20 27 1011.5 1011.5 0.0
30/01:00pm 13.6 4.1 3.7 51 4.5 N 43 54 23 29 1011.9 1011.9 0.0
30/12:30pm 14.3 6.4 4.3 51 4.6 N 35 48 19 26 1012.4 1012.4 0.0
30/12:00pm 14.0 4.5 4.0 51 4.6 N 43 54 23 29 1012.9 1012.9 0.0
30/11:30am 13.9 4.6 4.8 54 4.2 N 43 61 23 33 1013.7 1013.6 0.0
30/11:17am 13.9 4.5 4.5 53 4.3 NNW 43 61 23 33 1013.9 1013.8 0.0
30/11:00am 13.8 4.5 4.9 55 4.1 N 43 57 23 31 1014.3 1014.2 0.0
30/10:30am 13.8 4.8 4.4 53 4.3 N 41 56 22 30 1015.1 1015.0 0.0
30/10:00am 13.9 4.2 3.9 51 4.6 N 44 57 24 31 1015.4 1015.4 0.0
30/09:30am 13.9 3.9 4.2 52 4.5 N 46 56 25 30 1015.5 1015.5 0.0
30/09:00am 13.8 5.5 4.4 53 4.3 NNW 37 54 20 29 1015.9 1015.9 0.0
30/08:30am 13.4 4.5 5.1 57 3.9 N 41 52 22 28 1016.4 1016.4 0.0
30/08:00am 13.4 4.8 4.8 56 4.0 N 39 48 21 26 1016.7 1016.7 0.0
30/07:30am 13.4 5.9 4.6 55 4.1 N 33 48 18 26 1017.0 1017.0 0.0
30/07:00am 13.6 6.0 6.0 60 3.6 N 35 48 19 26 1017.1 1017.1 0.0
30/06:30am 13.3 8.5 8.8 74 2.3 N 24 37 13 20 1017.3 1017.3 0.0
30/06:00am 13.4 7.3 6.7 64 3.2 NNW 28 43 15 23 1017.2 1017.2 0.0
30/05:30am 13.3 6.6 7.3 67 2.9 N 32 44 17 24 1017.3 1017.3 0.0
30/05:00am 13.1 6.8 7.3 68 2.8 N 30 43 16 23 1017.6 1017.6 0.0
30/04:30am 13.0 6.3 7.5 69 2.7 N 32 39 17 21 1017.9 1017.9 0.0
30/04:00am 13.2 7.9 8.5 73 2.3 N 26 37 14 20 1018.2 1018.2 0.0
30/03:30am 12.8 7.3 7.5 70 2.6 N 26 35 14 19 1018.9 1018.9 0.0
30/03:00am 12.8 7.7 7.5 70 2.6 N 24 33 13 18 1019.2 1019.2 0.0
30/02:30am 13.2 8.6 8.3 72 2.4 NNW 22 33 12 18 1019.7 1019.7 0.0
30/02:00am 12.4 7.7 7.7 73 2.3 NNW 22 33 12 18 1020.1 1020.1 0.0
30/01:30am 12.9 8.7 8.2 73 2.3 NNW 20 28 11 15 1020.4 1020.4 0.0
30/01:00am 13.4 8.9 8.5 72 2.4 NNW 22 32 12 17 1020.8 1020.8 0.0
30/12:30am 13.4 8.9 8.5 72 2.5 NNW 22 33 12 18 1021.1 1021.1 0.0
30/12:00am 13.4 9.6 8.9 74 2.3 NNW 19 28 10 15 1021.8 1021.8 0.0
 
Date/Time
EST
Temp
°C
App
Temp
°C
Dew
Point
°C
Rel
Hum
%
Delta-T
°C
Wind Press
QNH
hPa
Press
MSL
hPa
Rain since
9am
mm
Dir  Spd
km/h
Gust
km/h
Spd
kts
Gust
kts
29/11:30pm 14.0 9.1 8.6 70 2.7 N 24 35 13 19 1022.1 1022.1 0.0
29/11:00pm 14.4 10.0 9.0 70 2.7 NNW 22 32 12 17 1022.6 1022.6 0.0
29/10:30pm 14.5 9.7 8.9 69 2.8 NNW 24 33 13 18 1023.0 1023.0 0.0
29/10:00pm 14.1 10.2 8.5 69 2.8 NNW 19 30 10 16 1023.3 1023.3 0.0
29/09:30pm 14.0 10.5 8.8 71 2.6 NW 17 24 9 13 1023.7 1023.7 0.0
29/09:00pm 14.1 10.7 9.1 72 2.5 NW 17 20 9 11 1023.8 1023.8 0.0
29/08:30pm 15.3 11.1 7.6 60 3.8 NNE 19 24 10 13 1024.1 1024.1 0.0
29/08:00pm 15.4 11.2 7.4 59 4.0 NNE 19 26 10 14 1024.2 1024.2 0.0
29/07:30pm 15.4 11.1 7.2 58 4.1 NNE 19 24 10 13 1024.4 1024.4 0.0
29/07:00pm 15.3 11.4 7.1 58 4.0 NNE 17 24 9 13 1024.5 1024.5 0.0
29/06:30pm 15.4 11.4 6.7 56 4.3 NE 17 22 9 12 1024.5 1024.5 0.0
29/06:00pm 15.3 11.7 6.6 56 4.2 NE 15 20 8 11 1024.4 1024.4 0.0
29/05:30pm 15.3 12.0 6.3 55 4.4 NE 13 19 7 10 1024.5 1024.5 0.0
29/05:00pm 15.3 12.6 5.8 53 4.5 NE 9 13 5 7 1024.5 1024.5 0.0
29/04:30pm 15.4 12.4 5.9 53 4.6 NE 11 15 6 8 1024.6 1024.6 0.0
29/04:00pm 15.5 13.2 5.7 52 4.7 ENE 7 13 4 7 1024.6 1024.6 0.0
29/03:30pm 16.2 13.8 5.2 48 5.3 NE 7 11 4 6 1024.5 1024.5 0.0
29/03:00pm 16.8 14.6 5.4 47 5.5 ENE 6 11 3 6 1024.6 1024.6 0.0
29/02:30pm 16.9 14.6 4.6 44 5.8 NNE 6 11 3 6 1024.5 1024.5 0.0
29/02:00pm 17.5 15.1 4.5 42 6.1 NW 6 9 3 5 1024.7 1024.7 0.0
29/01:30pm 17.1 14.7 4.1 42 6.1 NW 6 11 3 6 1025.0 1025.0 0.0
29/01:00pm 17.2 14.7 3.5 40 6.3 NW 6 11 3 6 1025.3 1025.3 0.0
29/12:30pm 18.0 15.3 3.9 39 6.6 WNW 7 13 4 7 1025.6 1025.6 0.0
29/12:00pm 17.8 15.0 3.3 38 6.7 WNW 7 13 4 7 1026.0 1026.0 0.0
29/11:30am 17.1 13.4 4.4 43 6.0 WNW 13 17 7 9 1026.4 1026.4 0.0
29/11:00am 17.1 13.9 6.9 51 5.0 W 13 17 7 9 1026.8 1026.8 0.0
29/10:30am 16.2 12.4 5.8 50 5.0 W 15 19 8 10 1027.2 1027.2 0.0
29/10:00am 15.5 11.8 6.2 54 4.5 W 15 19 8 10 1027.3 1027.3 0.0
29/09:30am 14.6 10.8 5.9 56 4.2 WNW 15 20 8 11 1027.2 1027.2 0.0
29/09:00am 14.0 9.9 6.1 59 3.8 W 17 20 9 11 1027.0 1027.0 0.0
29/08:30am 13.4 9.3 6.3 62 3.4 W 17 19 9 10 1026.9 1026.9 0.0
29/08:00am 12.5 8.6 5.4 62 3.3 W 15 20 8 11 1026.8 1026.8 0.0
29/07:30am 12.1 7.9 5.7 65 3.0 W 17 20 9 11 1026.5 1026.5 0.0
29/07:00am 11.8 8.0 5.7 66 2.8 W 15 19 8 10 1026.2 1026.2 0.0

Other Formats:

Comma delimited format used in spreadsheet applications
http://www.bom.gov.au/fwo/IDN60801/IDN60801.94939.axf

JavaScript Object Notation format (JSON) in row-major order
http://www.bom.gov.au/fwo/IDN60801/IDN60801.94939.json